メインページ
METAR-TAF:

METAR-TAF

空港 :

グアテマラシティ, グアテマラ

ラ・アウロラ国際空港

緯度: 14-35N, 経度: 090-31W, 海抜: 1489m

現時点の気象観測

当レポートは10分前の22:00(UTC)に作成
東/北東の風 8kt
気温 24°C
湿度 41%
気圧 1022 hPa
視程10km以上
高度2000ftの雲は散在している, 塔状積雲.

METAR: MGGT 192200Z 06008KT 9999 SCT020TCU 24/10 Q1022 A3018 TCU S

時間: 16:10 (22:10 UTC)

予報

予報は19日の 18時(UTC)から 20日の 18時(UTC)まで有効
の風 8kt
視程10km以上
高度2000ftの雲はほとんどない
確率 40% :
19日の 21時(UTC)から 20日の 01時(UTC)まで一時的に
視程: 8000m
高度2000ftの雲は散在している, 塔状積雲.
20日の 01時(UTC)から 20日の 03時(UTC)まで徐々に
の風 6kt
高度1600ftの雲はほとんどない
20日の 06時(UTC)から 20日の 12時(UTC)まで一時的に
変向風 3kt
視程: 5000m
高度1200ftの雲は散在している
20日の 14時(UTC)から 20日の 16時(UTC)まで徐々に
高度1800ftの雲はほとんどない

TAF: MGGT 1918/2018 18008KT 9999 FEW020 TX26/1920Z TN14/2012Z PROB40 TEMPO 1921/2001 8000 SCT020TCU BECMG 2001/2003 36006KT FEW016 TEMPO 2006/2012 VRB03KT 5000 BR SCT012 BECMG 2014/2016 FEW018

4,000以上の空港の気象観測と天気予報(METAR報とTAF報)

利用可能な観測所は地図上に黄色い丸と赤い丸で示す。

丸の上にカーソルを重ねると観測所名を参照できる。

次にクリックすると気象観測と天気予報を参照できる。

マップの切り替え:黒色「×」印の緑ボタンをクリックして拡大、「-」印の緑ボタンをクリックして縮小、緑色の三角印をクリックして隣りの地図に切り替え


METAR-TAF: